sensor_id;sensor_type;location;lat;lon;timestamp;temperature;humidity
47162;DHT22;32921;53.256;8.198;2023-09-30T00:01:18;11.10;99.90
47162;DHT22;32921;53.256;8.198;2023-09-30T00:03:44;11.20;99.90
47162;DHT22;32921;53.256;8.198;2023-09-30T00:06:10;11.20;99.90
47162;DHT22;32921;53.256;8.198;2023-09-30T00:08:35;11.20;99.90
47162;DHT22;32921;53.256;8.198;2023-09-30T00:11:01;11.20;99.90
47162;DHT22;32921;53.256;8.198;2023-09-30T00:13:27;11.20;99.90
47162;DHT22;32921;53.256;8.198;2023-09-30T00:15:53;11.10;99.90
47162;DHT22;32921;53.256;8.198;2023-09-30T00:18:19;11.20;99.90
47162;DHT22;32921;53.256;8.198;2023-09-30T00:20:45;11.00;99.90
47162;DHT22;32921;53.256;8.198;2023-09-30T00:23:10;11.10;99.90
47162;DHT22;32921;53.256;8.198;2023-09-30T00:25:36;11.00;99.90
47162;DHT22;32921;53.256;8.198;2023-09-30T00:28:01;11.00;99.90
47162;DHT22;32921;53.256;8.198;2023-09-30T00:30:27;11.10;99.90
47162;DHT22;32921;53.256;8.198;2023-09-30T00:32:53;11.00;99.90
47162;DHT22;32921;53.256;8.198;2023-09-30T00:35:18;11.00;99.90
47162;DHT22;32921;53.256;8.198;2023-09-30T00:37:44;11.20;99.90
47162;DHT22;32921;53.256;8.198;2023-09-30T00:40:10;11.20;99.90
47162;DHT22;32921;53.256;8.198;2023-09-30T00:42:37;11.20;99.90
47162;DHT22;32921;53.256;8.198;2023-09-30T00:45:04;11.20;99.90
47162;DHT22;32921;53.256;8.198;2023-09-30T00:47:30;11.20;99.90
47162;DHT22;32921;53.256;8.198;2023-09-30T00:49:56;11.10;99.90
47162;DHT22;32921;53.256;8.198;2023-09-30T00:52:22;11.20;99.90
47162;DHT22;32921;53.256;8.198;2023-09-30T00:54:48;11.20;99.90
47162;DHT22;32921;53.256;8.198;2023-09-30T00:57:15;11.30;99.90
47162;DHT22;32921;53.256;8.198;2023-09-30T00:59:40;11.30;99.90
47162;DHT22;32921;53.256;8.198;2023-09-30T01:02:07;11.40;99.90
47162;DHT22;32921;53.256;8.198;2023-09-30T01:04:33;11.40;99.90
47162;DHT22;32921;53.256;8.198;2023-09-30T01:06:58;11.30;99.90
47162;DHT22;32921;53.256;8.198;2023-09-30T01:09:24;11.30;99.90
47162;DHT22;32921;53.256;8.198;2023-09-30T01:11:50;11.40;99.90
47162;DHT22;32921;53.256;8.198;2023-09-30T01:14:27;11.30;99.90
47162;DHT22;32921;53.256;8.198;2023-09-30T01:16:53;11.30;99.90
47162;DHT22;32921;53.256;8.198;2023-09-30T01:19:19;11.30;99.90
47162;DHT22;32921;53.256;8.198;2023-09-30T01:21:44;11.30;99.90
47162;DHT22;32921;53.256;8.198;2023-09-30T01:24:14;11.30;99.90
47162;DHT22;32921;53.256;8.198;2023-09-30T01:26:40;11.20;99.90
47162;DHT22;32921;53.256;8.198;2023-09-30T01:29:05;11.20;99.90
47162;DHT22;32921;53.256;8.198;2023-09-30T01:31:31;11.20;99.90
47162;DHT22;32921;53.256;8.198;2023-09-30T01:33:56;11.30;99.90
47162;DHT22;32921;53.256;8.198;2023-09-30T01:36:22;11.20;99.90
47162;DHT22;32921;53.256;8.198;2023-09-30T01:38:48;11.10;99.90
47162;DHT22;32921;53.256;8.198;2023-09-30T01:41:13;11.10;99.90
47162;DHT22;32921;53.256;8.198;2023-09-30T01:43:39;11.30;99.90
47162;DHT22;32921;53.256;8.198;2023-09-30T01:46:04;11.40;99.90
47162;DHT22;32921;53.256;8.198;2023-09-30T01:48:31;11.50;99.90
47162;DHT22;32921;53.256;8.198;2023-09-30T01:50:57;11.50;99.90
47162;DHT22;32921;53.256;8.198;2023-09-30T01:53:23;11.40;99.90
47162;DHT22;32921;53.256;8.198;2023-09-30T01:55:48;11.40;99.90
47162;DHT22;32921;53.256;8.198;2023-09-30T01:58:14;11.30;99.90
47162;DHT22;32921;53.256;8.198;2023-09-30T02:00:39;11.20;99.90
47162;DHT22;32921;53.256;8.198;2023-09-30T02:03:05;11.10;99.90
47162;DHT22;32921;53.256;8.198;2023-09-30T02:05:31;11.10;99.90
47162;DHT22;32921;53.256;8.198;2023-09-30T02:07:56;11.00;99.90
47162;DHT22;32921;53.256;8.198;2023-09-30T02:10:22;11.10;99.90
47162;DHT22;32921;53.256;8.198;2023-09-30T02:12:47;11.00;99.90
47162;DHT22;32921;53.256;8.198;2023-09-30T02:15:14;11.10;99.90
47162;DHT22;32921;53.256;8.198;2023-09-30T02:17:40;11.10;99.90
47162;DHT22;32921;53.256;8.198;2023-09-30T02:20:11;11.20;99.90
47162;DHT22;32921;53.256;8.198;2023-09-30T02:22:38;11.10;99.90
47162;DHT22;32921;53.256;8.198;2023-09-30T02:25:04;11.10;99.90
47162;DHT22;32921;53.256;8.198;2023-09-30T02:27:33;11.00;99.90
47162;DHT22;32921;53.256;8.198;2023-09-30T02:29:59;11.00;99.90
47162;DHT22;32921;53.256;8.198;2023-09-30T02:32:25;11.00;99.90
47162;DHT22;32921;53.256;8.198;2023-09-30T02:34:50;11.00;99.90
47162;DHT22;32921;53.256;8.198;2023-09-30T02:37:16;11.00;99.90
47162;DHT22;32921;53.256;8.198;2023-09-30T02:39:44;11.00;99.90
47162;DHT22;32921;53.256;8.198;2023-09-30T02:42:10;11.10;99.90
47162;DHT22;32921;53.256;8.198;2023-09-30T02:44:35;11.20;99.90
47162;DHT22;32921;53.256;8.198;2023-09-30T02:47:01;11.20;99.90
47162;DHT22;32921;53.256;8.198;2023-09-30T02:49:26;11.20;99.90
47162;DHT22;32921;53.256;8.198;2023-09-30T02:51:53;11.20;99.90
47162;DHT22;32921;53.256;8.198;2023-09-30T02:54:18;11.20;99.90
47162;DHT22;32921;53.256;8.198;2023-09-30T02:56:44;11.20;99.90
47162;DHT22;32921;53.256;8.198;2023-09-30T02:59:12;11.10;99.90
47162;DHT22;32921;53.256;8.198;2023-09-30T03:01:38;11.00;99.90
47162;DHT22;32921;53.256;8.198;2023-09-30T03:04:03;11.00;99.90
47162;DHT22;32921;53.256;8.198;2023-09-30T03:06:33;10.90;99.90
47162;DHT22;32921;53.256;8.198;2023-09-30T03:09:00;10.90;99.90
47162;DHT22;32921;53.256;8.198;2023-09-30T03:11:27;11.00;99.90
47162;DHT22;32921;53.256;8.198;2023-09-30T03:13:53;11.10;99.90
47162;DHT22;32921;53.256;8.198;2023-09-30T03:16:20;11.00;99.90
47162;DHT22;32921;53.256;8.198;2023-09-30T03:18:46;11.10;99.90
47162;DHT22;32921;53.256;8.198;2023-09-30T03:21:15;11.10;99.90
47162;DHT22;32921;53.256;8.198;2023-09-30T03:23:41;11.00;99.90
47162;DHT22;32921;53.256;8.198;2023-09-30T03:26:07;11.00;99.90
47162;DHT22;32921;53.256;8.198;2023-09-30T03:28:36;11.10;99.90
47162;DHT22;32921;53.256;8.198;2023-09-30T03:31:03;11.10;99.90
47162;DHT22;32921;53.256;8.198;2023-09-30T03:33:33;11.10;99.90
47162;DHT22;32921;53.256;8.198;2023-09-30T03:35:59;11.00;99.90
47162;DHT22;32921;53.256;8.198;2023-09-30T03:38:26;11.10;99.90
47162;DHT22;32921;53.256;8.198;2023-09-30T03:40:51;11.20;99.90
47162;DHT22;32921;53.256;8.198;2023-09-30T03:43:20;11.10;99.90
47162;DHT22;32921;53.256;8.198;2023-09-30T03:45:46;11.10;99.90
47162;DHT22;32921;53.256;8.198;2023-09-30T03:48:12;11.10;99.90
47162;DHT22;32921;53.256;8.198;2023-09-30T03:50:37;11.10;99.90
47162;DHT22;32921;53.256;8.198;2023-09-30T03:53:04;11.00;99.90
47162;DHT22;32921;53.256;8.198;2023-09-30T03:55:30;11.00;99.90
47162;DHT22;32921;53.256;8.198;2023-09-30T03:57:57;11.10;99.90
47162;DHT22;32921;53.256;8.198;2023-09-30T04:00:23;11.10;99.90
47162;DHT22;32921;53.256;8.198;2023-09-30T04:02:50;11.10;99.90
47162;DHT22;32921;53.256;8.198;2023-09-30T04:05:19;11.00;99.90
47162;DHT22;32921;53.256;8.198;2023-09-30T04:07:49;11.00;99.90
47162;DHT22;32921;53.256;8.198;2023-09-30T04:10:15;11.00;99.90
47162;DHT22;32921;53.256;8.198;2023-09-30T04:12:40;11.00;99.90
47162;DHT22;32921;53.256;8.198;2023-09-30T04:15:06;11.00;99.90
47162;DHT22;32921;53.256;8.198;2023-09-30T04:17:32;11.00;99.90
47162;DHT22;32921;53.256;8.198;2023-09-30T04:19:58;11.00;99.90
47162;DHT22;32921;53.256;8.198;2023-09-30T04:22:25;11.00;99.90
47162;DHT22;32921;53.256;8.198;2023-09-30T04:24:51;11.00;99.90
47162;DHT22;32921;53.256;8.198;2023-09-30T04:27:17;11.00;99.90
47162;DHT22;32921;53.256;8.198;2023-09-30T04:29:43;11.00;99.90
47162;DHT22;32921;53.256;8.198;2023-09-30T04:32:09;11.00;99.90
47162;DHT22;32921;53.256;8.198;2023-09-30T04:34:35;10.90;99.90
47162;DHT22;32921;53.256;8.198;2023-09-30T04:37:01;10.90;99.90
47162;DHT22;32921;53.256;8.198;2023-09-30T04:39:27;10.90;99.90
47162;DHT22;32921;53.256;8.198;2023-09-30T04:41:53;10.90;99.90
47162;DHT22;32921;53.256;8.198;2023-09-30T04:44:20;10.90;99.90
47162;DHT22;32921;53.256;8.198;2023-09-30T04:46:45;10.90;99.90
47162;DHT22;32921;53.256;8.198;2023-09-30T04:49:14;10.90;99.90
47162;DHT22;32921;53.256;8.198;2023-09-30T04:51:40;10.90;99.90
47162;DHT22;32921;53.256;8.198;2023-09-30T04:54:05;10.90;99.90
47162;DHT22;32921;53.256;8.198;2023-09-30T04:56:34;10.90;99.90
47162;DHT22;32921;53.256;8.198;2023-09-30T04:59:00;10.80;99.90
47162;DHT22;32921;53.256;8.198;2023-09-30T05:01:26;10.80;99.90
47162;DHT22;32921;53.256;8.198;2023-09-30T05:03:52;10.70;99.90
47162;DHT22;32921;53.256;8.198;2023-09-30T05:06:18;10.70;99.90
47162;DHT22;32921;53.256;8.198;2023-09-30T05:08:44;10.80;99.90
47162;DHT22;32921;53.256;8.198;2023-09-30T05:11:09;10.70;99.90
47162;DHT22;32921;53.256;8.198;2023-09-30T05:13:35;10.70;99.90
47162;DHT22;32921;53.256;8.198;2023-09-30T05:16:02;10.70;99.90
47162;DHT22;32921;53.256;8.198;2023-09-30T05:18:28;10.70;99.90
47162;DHT22;32921;53.256;8.198;2023-09-30T05:20:55;10.70;99.90
47162;DHT22;32921;53.256;8.198;2023-09-30T05:23:20;10.80;99.90
47162;DHT22;32921;53.256;8.198;2023-09-30T05:25:46;10.80;99.90
47162;DHT22;32921;53.256;8.198;2023-09-30T05:28:11;10.70;99.90
47162;DHT22;32921;53.256;8.198;2023-09-30T05:30:39;10.60;99.90
47162;DHT22;32921;53.256;8.198;2023-09-30T05:33:06;10.70;99.90
47162;DHT22;32921;53.256;8.198;2023-09-30T05:35:31;10.60;99.90
47162;DHT22;32921;53.256;8.198;2023-09-30T05:37:57;10.60;99.90
47162;DHT22;32921;53.256;8.198;2023-09-30T05:40:23;10.60;99.90
47162;DHT22;32921;53.256;8.198;2023-09-30T05:42:53;10.60;99.90
47162;DHT22;32921;53.256;8.198;2023-09-30T05:45:19;10.60;99.90
47162;DHT22;32921;53.256;8.198;2023-09-30T05:47:45;10.50;99.90
47162;DHT22;32921;53.256;8.198;2023-09-30T05:50:11;10.70;99.90
47162;DHT22;32921;53.256;8.198;2023-09-30T05:52:52;10.60;99.90
47162;DHT22;32921;53.256;8.198;2023-09-30T05:55:18;10.70;99.90
47162;DHT22;32921;53.256;8.198;2023-09-30T05:57:50;10.70;99.90
47162;DHT22;32921;53.256;8.198;2023-09-30T06:00:16;10.80;99.90
47162;DHT22;32921;53.256;8.198;2023-09-30T06:03:00;10.80;99.90
47162;DHT22;32921;53.256;8.198;2023-09-30T06:05:27;10.80;99.90
47162;DHT22;32921;53.256;8.198;2023-09-30T06:07:55;10.80;99.90
47162;DHT22;32921;53.256;8.198;2023-09-30T06:10:20;10.90;99.90
47162;DHT22;32921;53.256;8.198;2023-09-30T06:12:47;11.00;99.90
47162;DHT22;32921;53.256;8.198;2023-09-30T06:15:16;11.00;99.90
47162;DHT22;32921;53.256;8.198;2023-09-30T06:17:50;11.10;99.90
47162;DHT22;32921;53.256;8.198;2023-09-30T06:20:20;11.10;99.90
47162;DHT22;32921;53.256;8.198;2023-09-30T06:22:48;11.20;99.90
47162;DHT22;32921;53.256;8.198;2023-09-30T06:25:19;11.20;99.90
47162;DHT22;32921;53.256;8.198;2023-09-30T06:27:45;11.20;99.90
47162;DHT22;32921;53.256;8.198;2023-09-30T06:30:12;11.30;99.90
47162;DHT22;32921;53.256;8.198;2023-09-30T06:32:39;11.30;99.90
47162;DHT22;32921;53.256;8.198;2023-09-30T06:35:06;11.40;99.90
47162;DHT22;32921;53.256;8.198;2023-09-30T06:37:32;11.40;99.90
47162;DHT22;32921;53.256;8.198;2023-09-30T06:39:58;11.50;99.90
47162;DHT22;32921;53.256;8.198;2023-09-30T06:42:24;11.50;99.90
47162;DHT22;32921;53.256;8.198;2023-09-30T06:44:50;11.60;99.90
47162;DHT22;32921;53.256;8.198;2023-09-30T06:47:16;11.70;99.90
47162;DHT22;32921;53.256;8.198;2023-09-30T06:49:41;11.70;99.90
47162;DHT22;32921;53.256;8.198;2023-09-30T06:52:07;11.70;99.90
47162;DHT22;32921;53.256;8.198;2023-09-30T06:54:33;11.80;99.90
47162;DHT22;32921;53.256;8.198;2023-09-30T06:56:58;11.80;99.90
47162;DHT22;32921;53.256;8.198;2023-09-30T06:59:24;11.80;99.90
47162;DHT22;32921;53.256;8.198;2023-09-30T07:01:50;11.90;99.90
47162;DHT22;32921;53.256;8.198;2023-09-30T07:04:16;12.00;99.90
47162;DHT22;32921;53.256;8.198;2023-09-30T07:06:42;12.10;99.90
47162;DHT22;32921;53.256;8.198;2023-09-30T07:09:07;12.20;99.90
47162;DHT22;32921;53.256;8.198;2023-09-30T07:11:34;12.20;99.90
47162;DHT22;32921;53.256;8.198;2023-09-30T07:14:01;12.20;99.90
47162;DHT22;32921;53.256;8.198;2023-09-30T07:16:26;12.30;99.90
47162;DHT22;32921;53.256;8.198;2023-09-30T07:18:52;12.30;99.90
47162;DHT22;32921;53.256;8.198;2023-09-30T07:21:17;12.40;99.90
47162;DHT22;32921;53.256;8.198;2023-09-30T07:23:43;12.50;99.90
47162;DHT22;32921;53.256;8.198;2023-09-30T07:26:09;12.60;99.90
47162;DHT22;32921;53.256;8.198;2023-09-30T07:28:34;12.70;99.90
47162;DHT22;32921;53.256;8.198;2023-09-30T07:31:00;12.70;99.90
47162;DHT22;32921;53.256;8.198;2023-09-30T07:33:25;12.90;99.90
47162;DHT22;32921;53.256;8.198;2023-09-30T07:35:51;13.10;99.90
47162;DHT22;32921;53.256;8.198;2023-09-30T07:38:17;13.30;99.90
47162;DHT22;32921;53.256;8.198;2023-09-30T07:40:43;13.40;99.90
47162;DHT22;32921;53.256;8.198;2023-09-30T07:43:08;13.50;99.90
47162;DHT22;32921;53.256;8.198;2023-09-30T07:45:34;13.70;99.90
47162;DHT22;32921;53.256;8.198;2023-09-30T07:47:59;13.70;99.90
47162;DHT22;32921;53.256;8.198;2023-09-30T07:50:26;13.80;99.90
47162;DHT22;32921;53.256;8.198;2023-09-30T07:52:52;14.00;99.90
47162;DHT22;32921;53.256;8.198;2023-09-30T07:55:17;14.00;99.90
47162;DHT22;32921;53.256;8.198;2023-09-30T07:57:43;14.10;99.90
47162;DHT22;32921;53.256;8.198;2023-09-30T08:00:09;14.20;99.90
47162;DHT22;32921;53.256;8.198;2023-09-30T08:02:35;14.30;99.90
47162;DHT22;32921;53.256;8.198;2023-09-30T08:05:02;14.30;99.90
47162;DHT22;32921;53.256;8.198;2023-09-30T08:07:28;14.40;99.90
47162;DHT22;32921;53.256;8.198;2023-09-30T08:09:53;14.50;99.90
47162;DHT22;32921;53.256;8.198;2023-09-30T08:12:19;14.60;99.90
47162;DHT22;32921;53.256;8.198;2023-09-30T08:14:44;14.80;99.90
47162;DHT22;32921;53.256;8.198;2023-09-30T08:17:10;15.00;99.90
47162;DHT22;32921;53.256;8.198;2023-09-30T08:19:36;15.10;99.90
47162;DHT22;32921;53.256;8.198;2023-09-30T08:22:02;15.20;99.90
47162;DHT22;32921;53.256;8.198;2023-09-30T08:24:29;15.30;99.90
47162;DHT22;32921;53.256;8.198;2023-09-30T08:26:54;15.40;99.90
47162;DHT22;32921;53.256;8.198;2023-09-30T08:29:21;15.70;99.90
47162;DHT22;32921;53.256;8.198;2023-09-30T08:31:47;15.90;99.90
47162;DHT22;32921;53.256;8.198;2023-09-30T08:34:13;15.90;99.90
47162;DHT22;32921;53.256;8.198;2023-09-30T08:36:40;16.10;99.90
47162;DHT22;32921;53.256;8.198;2023-09-30T08:39:07;16.10;99.90
47162;DHT22;32921;53.256;8.198;2023-09-30T08:41:33;16.10;99.90
47162;DHT22;32921;53.256;8.198;2023-09-30T08:44:03;16.10;99.90
47162;DHT22;32921;53.256;8.198;2023-09-30T08:46:33;15.80;99.90
47162;DHT22;32921;53.256;8.198;2023-09-30T08:49:03;15.90;99.90
47162;DHT22;32921;53.256;8.198;2023-09-30T08:51:31;16.00;99.90
47162;DHT22;32921;53.256;8.198;2023-09-30T08:53:59;16.00;99.90
47162;DHT22;32921;53.256;8.198;2023-09-30T08:56:28;16.00;99.90
47162;DHT22;32921;53.256;8.198;2023-09-30T08:58:57;16.00;99.90
47162;DHT22;32921;53.256;8.198;2023-09-30T09:01:25;16.00;99.90
47162;DHT22;32921;53.256;8.198;2023-09-30T09:03:51;16.20;99.90
47162;DHT22;32921;53.256;8.198;2023-09-30T09:06:20;16.10;99.90
47162;DHT22;32921;53.256;8.198;2023-09-30T09:08:46;16.10;99.90
47162;DHT22;32921;53.256;8.198;2023-09-30T09:11:12;16.20;99.90
47162;DHT22;32921;53.256;8.198;2023-09-30T09:13:47;16.20;99.90
47162;DHT22;32921;53.256;8.198;2023-09-30T09:16:16;16.40;99.90
47162;DHT22;32921;53.256;8.198;2023-09-30T09:18:44;16.50;99.90
47162;DHT22;32921;53.256;8.198;2023-09-30T09:21:14;16.60;99.90
47162;DHT22;32921;53.256;8.198;2023-09-30T09:23:45;16.70;99.90
47162;DHT22;32921;53.256;8.198;2023-09-30T09:26:23;16.80;99.90
47162;DHT22;32921;53.256;8.198;2023-09-30T09:28:49;16.90;99.90
47162;DHT22;32921;53.256;8.198;2023-09-30T09:31:22;16.90;99.90
47162;DHT22;32921;53.256;8.198;2023-09-30T09:33:49;17.00;99.90
47162;DHT22;32921;53.256;8.198;2023-09-30T09:36:15;16.90;99.90
47162;DHT22;32921;53.256;8.198;2023-09-30T09:38:48;16.90;99.90
47162;DHT22;32921;53.256;8.198;2023-09-30T09:41:15;17.10;99.90
47162;DHT22;32921;53.256;8.198;2023-09-30T09:43:43;17.20;99.90
47162;DHT22;32921;53.256;8.198;2023-09-30T09:46:09;17.40;99.90
47162;DHT22;32921;53.256;8.198;2023-09-30T09:48:36;17.40;99.90
47162;DHT22;32921;53.256;8.198;2023-09-30T09:51:04;17.60;99.90
47162;DHT22;32921;53.256;8.198;2023-09-30T09:53:30;17.70;99.90
47162;DHT22;32921;53.256;8.198;2023-09-30T09:55:59;17.70;99.90
47162;DHT22;32921;53.256;8.198;2023-09-30T09:58:26;17.90;99.90
47162;DHT22;32921;53.256;8.198;2023-09-30T10:00:52;18.10;99.90
47162;DHT22;32921;53.256;8.198;2023-09-30T10:03:18;18.20;99.90
47162;DHT22;32921;53.256;8.198;2023-09-30T10:05:44;18.30;99.90
47162;DHT22;32921;53.256;8.198;2023-09-30T10:08:15;18.50;99.90
47162;DHT22;32921;53.256;8.198;2023-09-30T10:10:44;18.60;99.90
47162;DHT22;32921;53.256;8.198;2023-09-30T10:16:46;19.30;99.90
47162;DHT22;32921;53.256;8.198;2023-09-30T10:19:16;19.70;99.90
47162;DHT22;32921;53.256;8.198;2023-09-30T10:24:45;20.10;99.90
47162;DHT22;32921;53.256;8.198;2023-09-30T10:40:53;20.60;99.90
47162;DHT22;32921;53.256;8.198;2023-09-30T10:45:56;20.80;99.90
47162;DHT22;32921;53.256;8.198;2023-09-30T10:50:57;21.20;99.00
47162;DHT22;32921;53.256;8.198;2023-09-30T10:53:26;21.20;97.00
47162;DHT22;32921;53.256;8.198;2023-09-30T10:55:57;21.30;96.60
47162;DHT22;32921;53.256;8.198;2023-09-30T10:58:45;20.90;95.10
47162;DHT22;32921;53.256;8.198;2023-09-30T11:01:20;21.00;96.60
47162;DHT22;32921;53.256;8.198;2023-09-30T11:03:47;21.40;95.30
47162;DHT22;32921;53.256;8.198;2023-09-30T11:06:14;21.70;95.70
47162;DHT22;32921;53.256;8.198;2023-09-30T11:09:03;21.90;94.70
47162;DHT22;32921;53.256;8.198;2023-09-30T11:11:51;22.10;93.80
47162;DHT22;32921;53.256;8.198;2023-09-30T11:14:28;22.30;92.70
47162;DHT22;32921;53.256;8.198;2023-09-30T11:17:01;22.10;92.70
47162;DHT22;32921;53.256;8.198;2023-09-30T11:19:36;22.50;91.70
47162;DHT22;32921;53.256;8.198;2023-09-30T11:22:05;22.30;91.00
47162;DHT22;32921;53.256;8.198;2023-09-30T11:24:35;22.40;91.90
47162;DHT22;32921;53.256;8.198;2023-09-30T11:27:01;22.70;90.70
47162;DHT22;32921;53.256;8.198;2023-09-30T11:29:27;22.80;86.30
47162;DHT22;32921;53.256;8.198;2023-09-30T11:31:53;22.60;87.00
47162;DHT22;32921;53.256;8.198;2023-09-30T11:34:19;22.30;86.70
47162;DHT22;32921;53.256;8.198;2023-09-30T11:36:52;21.90;90.20
47162;DHT22;32921;53.256;8.198;2023-09-30T11:39:25;22.00;90.90
47162;DHT22;32921;53.256;8.198;2023-09-30T11:41:51;22.40;86.90
47162;DHT22;32921;53.256;8.198;2023-09-30T11:44:18;21.80;88.00
47162;DHT22;32921;53.256;8.198;2023-09-30T11:46:54;21.50;89.90
47162;DHT22;32921;53.256;8.198;2023-09-30T11:49:44;21.70;90.50
47162;DHT22;32921;53.256;8.198;2023-09-30T11:52:26;21.90;88.70
47162;DHT22;32921;53.256;8.198;2023-09-30T11:54:52;21.80;88.80
47162;DHT22;32921;53.256;8.198;2023-09-30T11:57:19;22.00;88.20
47162;DHT22;32921;53.256;8.198;2023-09-30T11:59:45;22.20;87.40
47162;DHT22;32921;53.256;8.198;2023-09-30T12:02:12;22.60;86.80
47162;DHT22;32921;53.256;8.198;2023-09-30T12:04:40;22.50;85.30
47162;DHT22;32921;53.256;8.198;2023-09-30T12:07:06;22.10;86.20
47162;DHT22;32921;53.256;8.198;2023-09-30T12:09:34;22.30;89.90
47162;DHT22;32921;53.256;8.198;2023-09-30T12:12:03;22.30;87.40
47162;DHT22;32921;53.256;8.198;2023-09-30T12:14:28;22.10;85.50
47162;DHT22;32921;53.256;8.198;2023-09-30T12:16:57;22.40;85.20
47162;DHT22;32921;53.256;8.198;2023-09-30T12:19:23;22.30;85.70
47162;DHT22;32921;53.256;8.198;2023-09-30T12:21:50;22.60;83.30
47162;DHT22;32921;53.256;8.198;2023-09-30T12:24:16;22.60;79.70
47162;DHT22;32921;53.256;8.198;2023-09-30T12:26:46;22.60;82.00
47162;DHT22;32921;53.256;8.198;2023-09-30T12:31:47;23.20;77.40
47162;DHT22;32921;53.256;8.198;2023-09-30T12:34:13;23.20;75.50
47162;DHT22;32921;53.256;8.198;2023-09-30T12:36:42;22.70;76.00
47162;DHT22;32921;53.256;8.198;2023-09-30T12:39:09;23.40;76.90
47162;DHT22;32921;53.256;8.198;2023-09-30T12:41:40;24.00;71.70
47162;DHT22;32921;53.256;8.198;2023-09-30T13:11:04;24.50;71.60
47162;DHT22;32921;53.256;8.198;2023-09-30T13:13:31;22.60;75.00
47162;DHT22;32921;53.256;8.198;2023-09-30T13:15:59;22.40;76.20
47162;DHT22;32921;53.256;8.198;2023-09-30T13:18:24;22.30;76.90
47162;DHT22;32921;53.256;8.198;2023-09-30T13:20:50;22.20;78.10
47162;DHT22;32921;53.256;8.198;2023-09-30T13:23:17;21.90;77.50
47162;DHT22;32921;53.256;8.198;2023-09-30T13:25:44;21.80;79.50
47162;DHT22;32921;53.256;8.198;2023-09-30T13:28:09;21.60;80.10
47162;DHT22;32921;53.256;8.198;2023-09-30T13:30:35;21.30;80.50
47162;DHT22;32921;53.256;8.198;2023-09-30T13:33:01;21.50;83.30
47162;DHT22;32921;53.256;8.198;2023-09-30T13:35:27;21.30;80.70
47162;DHT22;32921;53.256;8.198;2023-09-30T13:37:52;21.00;80.30
47162;DHT22;32921;53.256;8.198;2023-09-30T13:40:18;20.90;82.70
47162;DHT22;32921;53.256;8.198;2023-09-30T13:42:44;20.80;85.50
47162;DHT22;32921;53.256;8.198;2023-09-30T13:45:11;20.70;86.00
47162;DHT22;32921;53.256;8.198;2023-09-30T13:47:36;20.60;85.50
47162;DHT22;32921;53.256;8.198;2023-09-30T13:50:02;20.30;87.60
47162;DHT22;32921;53.256;8.198;2023-09-30T13:52:33;19.90;89.80
47162;DHT22;32921;53.256;8.198;2023-09-30T13:54:59;19.80;90.70
47162;DHT22;32921;53.256;8.198;2023-09-30T13:57:25;19.80;92.40
47162;DHT22;32921;53.256;8.198;2023-09-30T13:59:50;19.80;92.00
47162;DHT22;32921;53.256;8.198;2023-09-30T14:02:16;19.70;92.00
47162;DHT22;32921;53.256;8.198;2023-09-30T14:04:41;19.80;94.30
47162;DHT22;32921;53.256;8.198;2023-09-30T14:07:07;20.00;93.90
47162;DHT22;32921;53.256;8.198;2023-09-30T14:09:33;20.20;92.50
47162;DHT22;32921;53.256;8.198;2023-09-30T14:11:58;20.30;92.40
47162;DHT22;32921;53.256;8.198;2023-09-30T14:14:24;20.40;92.40
47162;DHT22;32921;53.256;8.198;2023-09-30T14:16:50;20.40;91.70
47162;DHT22;32921;53.256;8.198;2023-09-30T14:19:16;20.40;92.10
47162;DHT22;32921;53.256;8.198;2023-09-30T14:21:41;20.40;93.00
47162;DHT22;32921;53.256;8.198;2023-09-30T14:24:07;20.60;92.90
47162;DHT22;32921;53.256;8.198;2023-09-30T14:26:33;20.70;91.40
47162;DHT22;32921;53.256;8.198;2023-09-30T14:28:59;20.80;90.80
47162;DHT22;32921;53.256;8.198;2023-09-30T14:31:27;20.80;90.00
47162;DHT22;32921;53.256;8.198;2023-09-30T14:33:52;20.80;90.70
47162;DHT22;32921;53.256;8.198;2023-09-30T14:36:18;20.80;90.50
47162;DHT22;32921;53.256;8.198;2023-09-30T14:38:44;20.70;91.00
47162;DHT22;32921;53.256;8.198;2023-09-30T14:41:11;20.60;92.10
47162;DHT22;32921;53.256;8.198;2023-09-30T14:43:38;20.60;92.20
47162;DHT22;32921;53.256;8.198;2023-09-30T14:46:04;20.80;91.70
47162;DHT22;32921;53.256;8.198;2023-09-30T14:48:30;21.00;91.90
47162;DHT22;32921;53.256;8.198;2023-09-30T14:50:55;21.10;91.00
47162;DHT22;32921;53.256;8.198;2023-09-30T14:53:22;21.00;91.50
47162;DHT22;32921;53.256;8.198;2023-09-30T14:55:48;20.80;91.60
47162;DHT22;32921;53.256;8.198;2023-09-30T14:58:13;20.70;92.10
47162;DHT22;32921;53.256;8.198;2023-09-30T15:00:39;20.60;93.10
47162;DHT22;32921;53.256;8.198;2023-09-30T15:03:05;20.40;95.00
47162;DHT22;32921;53.256;8.198;2023-09-30T15:05:32;20.20;95.70
47162;DHT22;32921;53.256;8.198;2023-09-30T15:07:57;20.00;96.60
47162;DHT22;32921;53.256;8.198;2023-09-30T15:10:25;19.80;97.90
47162;DHT22;32921;53.256;8.198;2023-09-30T15:12:50;19.60;97.10
47162;DHT22;32921;53.256;8.198;2023-09-30T15:15:16;19.40;99.50
47162;DHT22;32921;53.256;8.198;2023-09-30T15:17:41;19.30;99.90
47162;DHT22;32921;53.256;8.198;2023-09-30T15:20:08;19.30;99.90
47162;DHT22;32921;53.256;8.198;2023-09-30T15:22:33;19.10;99.90
47162;DHT22;32921;53.256;8.198;2023-09-30T15:24:59;19.00;99.90
47162;DHT22;32921;53.256;8.198;2023-09-30T15:27:25;18.90;99.90
47162;DHT22;32921;53.256;8.198;2023-09-30T15:29:51;18.70;99.90
47162;DHT22;32921;53.256;8.198;2023-09-30T15:32:16;18.60;99.90
47162;DHT22;32921;53.256;8.198;2023-09-30T15:34:42;18.40;99.90
47162;DHT22;32921;53.256;8.198;2023-09-30T15:37:08;18.30;99.90
47162;DHT22;32921;53.256;8.198;2023-09-30T15:39:39;18.20;99.90
47162;DHT22;32921;53.256;8.198;2023-09-30T15:42:05;18.10;99.90
47162;DHT22;32921;53.256;8.198;2023-09-30T15:44:30;18.10;99.90
47162;DHT22;32921;53.256;8.198;2023-09-30T15:46:56;18.00;99.90
47162;DHT22;32921;53.256;8.198;2023-09-30T15:49:22;18.00;99.90
47162;DHT22;32921;53.256;8.198;2023-09-30T15:51:48;17.90;99.90
47162;DHT22;32921;53.256;8.198;2023-09-30T15:54:13;17.80;99.90
47162;DHT22;32921;53.256;8.198;2023-09-30T15:56:40;17.70;99.90
47162;DHT22;32921;53.256;8.198;2023-09-30T15:59:07;17.60;99.90
47162;DHT22;32921;53.256;8.198;2023-09-30T16:01:34;17.50;99.90
47162;DHT22;32921;53.256;8.198;2023-09-30T16:03:59;17.50;99.90
47162;DHT22;32921;53.256;8.198;2023-09-30T16:06:25;17.40;99.90
47162;DHT22;32921;53.256;8.198;2023-09-30T16:08:51;17.50;99.90
47162;DHT22;32921;53.256;8.198;2023-09-30T16:11:16;17.40;99.90
47162;DHT22;32921;53.256;8.198;2023-09-30T16:13:42;17.50;99.90
47162;DHT22;32921;53.256;8.198;2023-09-30T16:16:08;17.50;99.90
47162;DHT22;32921;53.256;8.198;2023-09-30T16:18:35;17.50;99.90
47162;DHT22;32921;53.256;8.198;2023-09-30T16:21:01;17.50;99.90
47162;DHT22;32921;53.256;8.198;2023-09-30T16:23:26;17.40;99.90